KSBA/SBA METAR and TAF weather

Enter ICAO airport designator
Station Type Date Time Source
KSBA METAR 2019/08/17 11:38 UTC NOAA

KSBA 171138Z AUTO 08004KT 5SM BR OVC009 17/16 A2989 RMK AO2 CIG 007V013 T01670156


Station Type Date Time Source
KSBA Decoded METAR 2019/08/17 11:38 UTC NOAA

Station name not available
Aug 17, 2019 - 07:38 AM EDT / 2019.08.17 1138 UTC
Wind: from the E (080 degrees) at 5 MPH (4 KT):0
Visibility: 5 mile(s):0
Sky conditions: overcast
Weather: mist
Temperature: 62.1 F (16.7 C)
Dew Point: 60.1 F (15.6 C)
Relative Humidity: 93%
Pressure (altimeter): 29.89 in. Hg (1012 hPa)
ob: KSBA 171138Z AUTO 08004KT 5SM BR OVC009 17/16 A2989 RMK AO2 CIG 007V013 T01670156
cycle: 11

Station Type Date Time Source
KSBA TAF 2019/08/17 12:39 UTC NOAA

TAF
AMD KSBA 171137Z 1712/1812 11005KT P6SM FEW005 OVC010
FM171500 VRB03KT P6SM OVC011
FM171900 17010KT 6SM BR SCT013
FM172100 25008KT P6SM SKC
FM180300 VRB03KT 3SM BR OVC004
FM180700 VRB03KT 5SM BR OVC006

Example: see airport list